createdAt,value
2018-06-29T00:01:23.969Z,99349.91
2018-06-29T00:05:27.477Z,99346.92
2018-06-29T00:09:30.904Z,99350.94
2018-06-29T00:13:34.309Z,99346.98
2018-06-29T00:17:37.794Z,99349.25
2018-06-29T00:21:41.207Z,99339.98
2018-06-29T00:25:44.632Z,99330.63
2018-06-29T00:29:48.117Z,99327.19
2018-06-29T00:33:51.503Z,99334.35
2018-06-29T00:37:54.942Z,99340.56
2018-06-29T00:41:58.397Z,99331.62
2018-06-29T00:46:01.865Z,99343.58
2018-06-29T00:50:05.270Z,99335.63
2018-06-29T00:54:08.724Z,99333.37
2018-06-29T00:58:12.180Z,99329.73
2018-06-29T01:02:15.618Z,99326.69
2018-06-29T01:06:19.061Z,99318.66
2018-06-29T01:10:22.549Z,99310.64
2018-06-29T01:14:26.006Z,99308.83
2018-06-29T01:18:29.432Z,99300.75
2018-06-29T01:22:32.854Z,99312.71
2018-06-29T01:26:36.280Z,99312.30
2018-06-29T01:30:39.716Z,99310.89
2018-06-29T01:34:43.250Z,99302.88
2018-06-29T01:38:46.664Z,99295.78
2018-06-29T01:42:50.092Z,99301.54
2018-06-29T01:46:53.652Z,99298.45
2018-06-29T01:50:57.101Z,99290.05
2018-06-29T01:55:00.502Z,99298.62
2018-06-29T01:59:03.964Z,99294.19
2018-06-29T02:03:07.419Z,99286.72
2018-06-29T02:07:10.889Z,99277.36
2018-06-29T02:11:14.303Z,99276.88
2018-06-29T02:15:17.737Z,99273.83
2018-06-29T02:19:21.185Z,99273.73
2018-06-29T02:23:24.637Z,99273.73
2018-06-29T02:27:28.132Z,99275.95
2018-06-29T02:31:31.636Z,99274.63
2018-06-29T02:35:35.081Z,99266.53
2018-06-29T02:39:38.894Z,99258.04
2018-06-29T02:43:42.765Z,99258.45
2018-06-29T02:47:46.197Z,99261.98
2018-06-29T02:51:49.657Z,99250.50
2018-06-29T02:55:53.061Z,99254.44
2018-06-29T02:59:56.494Z,99249.95
2018-06-29T03:04:00.025Z,99252.50
2018-06-29T03:08:03.464Z,99247.66
2018-06-29T03:12:06.905Z,99243.20
2018-06-29T03:16:10.343Z,99244.06
2018-06-29T03:20:13.783Z,99247.15
2018-06-29T03:24:17.259Z,99236.36
2018-06-29T03:28:20.728Z,99229.23
2018-06-29T03:32:24.195Z,99229.61
2018-06-29T03:36:27.669Z,99229.98
2018-06-29T03:40:31.174Z,99230.02
2018-06-29T03:44:34.583Z,99245.17
2018-06-29T03:48:38.066Z,99242.94
2018-06-29T03:52:41.522Z,99242.05
2018-06-29T03:56:44.938Z,99241.53
2018-06-29T04:00:48.392Z,99242.33
2018-06-29T04:04:51.845Z,99247.54
2018-06-29T04:08:55.231Z,99241.64
2018-06-29T04:12:58.703Z,99235.38
2018-06-29T04:17:02.169Z,99240.52
2018-06-29T04:21:05.626Z,99236.41
2018-06-29T04:25:09.089Z,99230.92
2018-06-29T04:29:13.377Z,99232.91
2018-06-29T04:33:16.858Z,99233.19
2018-06-29T04:37:20.306Z,99228.63
2018-06-29T04:41:23.794Z,99229.72
2018-06-29T04:45:27.240Z,99234.45
2018-06-29T04:49:30.710Z,99232.05
2018-06-29T04:53:34.145Z,99235.83
2018-06-29T04:57:37.578Z,99237.91
2018-06-29T05:01:41.050Z,99259.14
2018-06-29T05:05:44.527Z,99254.20
2018-06-29T05:09:47.960Z,99254.20
2018-06-29T05:13:51.503Z,99250.05
2018-06-29T05:17:54.957Z,99262.47
2018-06-29T05:21:58.419Z,99249.36
2018-06-29T05:26:01.889Z,99243.38
2018-06-29T05:30:06.636Z,99234.88
2018-06-29T05:34:10.080Z,99241.42
2018-06-29T05:38:13.558Z,99242.99
2018-06-29T05:42:17.315Z,99248.34
2018-06-29T05:46:20.831Z,99263.48
2018-06-29T05:50:24.181Z,99259.77
2018-06-29T05:54:27.585Z,99257.43
2018-06-29T05:58:31.660Z,99248.77
2018-06-29T06:02:35.107Z,99258.64
2018-06-29T06:06:38.522Z,99245.75
2018-06-29T06:10:43.854Z,99242.22
2018-06-29T06:14:47.311Z,99246.03
2018-06-29T06:18:59.597Z,99252.09
2018-06-29T06:23:13.800Z,99251.86
2018-06-29T06:27:17.237Z,99251.21
2018-06-29T06:31:20.675Z,99238.19
2018-06-29T06:35:24.159Z,99233.97
2018-06-29T06:39:27.894Z,99232.66
2018-06-29T06:43:31.346Z,99235.03
2018-06-29T06:47:34.778Z,99225.63
2018-06-29T06:51:38.215Z,99229.56
2018-06-29T06:55:41.894Z,99220.45
2018-06-29T06:59:45.319Z,99215.28
2018-06-29T07:03:48.771Z,99219.73
2018-06-29T07:07:52.283Z,99228.88
2018-06-29T07:11:56.031Z,99230.91
2018-06-29T07:15:59.502Z,99226.94
2018-06-29T07:20:03.147Z,99224.91
2018-06-29T07:24:06.588Z,99216.93
2018-06-29T07:28:10.031Z,99223.83
2018-06-29T07:32:13.479Z,99224.09
2018-06-29T07:36:17.411Z,99232.34
2018-06-29T07:40:20.869Z,99236.21
2018-06-29T07:44:24.293Z,99235.09
2018-06-29T07:48:27.722Z,99223.74
2018-06-29T07:52:31.154Z,99233.38
2018-06-29T07:56:34.598Z,99238.21
2018-06-29T08:00:38.028Z,99237.44
2018-06-29T08:04:41.478Z,99239.47
2018-06-29T08:08:44.899Z,99240.73
2018-06-29T08:12:48.352Z,99241.39
2018-06-29T08:16:51.822Z,99247.75
2018-06-29T08:20:55.451Z,99231.30
2018-06-29T08:25:11.241Z,99247.27
2018-06-29T08:29:14.678Z,99251.09
2018-06-29T08:33:18.207Z,99242.65
2018-06-29T08:37:21.614Z,99240.44
2018-06-29T08:41:25.073Z,99240.52
2018-06-29T08:45:28.505Z,99242.27
2018-06-29T08:49:31.939Z,99234.95
2018-06-29T08:53:35.347Z,99235.52
2018-06-29T08:57:38.753Z,99234.62
2018-06-29T09:01:48.607Z,99224.94
2018-06-29T09:05:52.014Z,99222.53
2018-06-29T09:09:55.425Z,99224.88
2018-06-29T09:13:58.843Z,99217.86
2018-06-29T09:18:02.311Z,99219.00
2018-06-29T09:22:05.841Z,99226.45
2018-06-29T09:26:09.265Z,99218.97
2018-06-29T09:30:17.842Z,99227.80
2018-06-29T09:34:21.327Z,99223.25
2018-06-29T09:38:24.732Z,99216.28
2018-06-29T09:42:28.239Z,99222.16
2018-06-29T09:46:31.588Z,99221.48
2018-06-29T09:50:35.024Z,99223.86
2018-06-29T09:54:38.731Z,99223.09
2018-06-29T09:58:42.249Z,99218.58
2018-06-29T10:02:46.709Z,99221.51
2018-06-29T10:06:50.147Z,99223.73
2018-06-29T10:10:53.578Z,99223.98
2018-06-29T10:14:57.080Z,99220.42
2018-06-29T10:19:00.953Z,99213.78
2018-06-29T10:23:04.330Z,99217.44
2018-06-29T10:27:07.761Z,99215.99
2018-06-29T10:31:11.391Z,99222.81
2018-06-29T10:35:14.836Z,99219.37
2018-06-29T10:39:18.237Z,99216.67
2018-06-29T10:43:21.645Z,99205.02
2018-06-29T10:47:25.088Z,99204.07
2018-06-29T10:51:28.539Z,99199.65
2018-06-29T10:55:31.979Z,99199.81
2018-06-29T10:59:35.516Z,99203.77
2018-06-29T11:03:38.959Z,99197.59
2018-06-29T11:07:42.415Z,99191.96
2018-06-29T11:11:45.837Z,99177.98
2018-06-29T11:15:50.253Z,99177.53
2018-06-29T11:19:54.177Z,99172.55
2018-06-29T11:23:57.586Z,99166.00
2018-06-29T11:28:01.017Z,99167.70
2018-06-29T11:32:04.451Z,99162.31
2018-06-29T11:36:08.143Z,99166.83
2018-06-29T11:40:11.602Z,99166.42
2018-06-29T11:44:15.154Z,99160.42
2018-06-29T11:48:18.636Z,99165.97
2018-06-29T11:52:22.024Z,99166.05
2018-06-29T11:56:25.449Z,99171.17
2018-06-29T12:00:28.877Z,99163.88
2018-06-29T12:04:32.314Z,99161.11
2018-06-29T12:08:35.825Z,99157.81
2018-06-29T12:12:39.223Z,99156.03
2018-06-29T12:16:42.761Z,99150.78
2018-06-29T12:20:46.359Z,99148.36
2018-06-29T12:24:51.015Z,99152.88
2018-06-29T12:28:54.476Z,99144.85
2018-06-29T12:32:57.894Z,99148.01
2018-06-29T12:37:01.359Z,99155.03
2018-06-29T12:41:04.830Z,99160.48
2018-06-29T12:45:08.341Z,99150.62
2018-06-29T12:49:11.767Z,99148.83
2018-06-29T12:53:15.183Z,99154.93
2018-06-29T12:57:18.643Z,99150.55
2018-06-29T13:01:22.090Z,99147.37
2018-06-29T13:05:25.644Z,99147.33
2018-06-29T13:09:29.014Z,99152.67
2018-06-29T13:13:32.490Z,99142.09
2018-06-29T13:17:35.901Z,99142.59
2018-06-29T13:21:39.330Z,99143.05
2018-06-29T13:25:42.752Z,99147.23
2018-06-29T13:29:46.163Z,99143.44
2018-06-29T13:33:54.966Z,99141.14
2018-06-29T13:37:58.385Z,99145.54
2018-06-29T13:42:01.857Z,99146.69
2018-06-29T13:46:05.303Z,99148.03
2018-06-29T13:50:09.941Z,99138.00
2018-06-29T13:54:13.394Z,99145.73
2018-06-29T13:58:16.840Z,99143.23
2018-06-29T14:02:20.296Z,99131.86
2018-06-29T14:06:23.724Z,99144.63
2018-06-29T14:10:27.147Z,99138.65
2018-06-29T14:14:30.867Z,99138.70
2018-06-29T14:18:34.301Z,99140.26
2018-06-29T14:22:38.352Z,99145.80
2018-06-29T14:26:41.855Z,99141.70
2018-06-29T14:30:47.237Z,99134.15
2018-06-29T14:34:51.093Z,99130.04
2018-06-29T14:38:54.516Z,99125.72
2018-06-29T14:42:57.959Z,99121.09
2018-06-29T14:47:01.381Z,99129.19
2018-06-29T14:51:04.806Z,99133.95
2018-06-29T14:55:08.219Z,99132.31
2018-06-29T14:59:11.638Z,99125.57
2018-06-29T15:03:15.097Z,99123.83
2018-06-29T15:07:18.667Z,99120.98
2018-06-29T15:11:22.096Z,99125.48
2018-06-29T15:15:25.789Z,99126.05
2018-06-29T15:19:29.225Z,99120.12
2018-06-29T15:23:32.707Z,99124.17
2018-06-29T15:27:36.346Z,99111.22
2018-06-29T15:31:40.279Z,99115.59
2018-06-29T15:35:43.736Z,99117.86
2018-06-29T15:39:47.244Z,99120.56
2018-06-29T15:43:50.782Z,99124.01
2018-06-29T15:47:54.417Z,99117.48
2018-06-29T15:51:57.849Z,99120.28
2018-06-29T15:56:01.261Z,99127.84
2018-06-29T16:00:06.355Z,99132.37
2018-06-29T16:04:10.712Z,99139.33
2018-06-29T16:08:14.178Z,99147.53
2018-06-29T16:12:17.796Z,99154.02
2018-06-29T16:16:21.170Z,99146.03
2018-06-29T16:20:24.572Z,99144.19
2018-06-29T16:24:28.003Z,99140.89
2018-06-29T16:28:31.521Z,99143.98
2018-06-29T16:32:35.001Z,99134.54
2018-06-29T16:36:38.433Z,99136.84
2018-06-29T16:40:42.029Z,99134.39
2018-06-29T16:44:45.692Z,99127.86
2018-06-29T16:48:49.034Z,99134.20
2018-06-29T16:52:52.580Z,99130.91
2018-06-29T16:56:56.014Z,99123.96
2018-06-29T17:00:59.485Z,99128.75
2018-06-29T17:05:02.876Z,99128.19
2018-06-29T17:09:08.331Z,99130.75
2018-06-29T17:13:11.792Z,99149.05
2018-06-29T17:17:15.279Z,99143.17
2018-06-29T17:21:19.012Z,99142.95
2018-06-29T17:25:22.492Z,99144.31
2018-06-29T17:29:26.005Z,99148.35
2018-06-29T17:33:32.052Z,99148.81
2018-06-29T17:37:32.910Z,99157.30
2018-06-29T17:41:36.329Z,99162.20
2018-06-29T17:45:39.830Z,99161.06
2018-06-29T17:49:43.443Z,99169.21
2018-06-29T17:53:46.888Z,99180.34
2018-06-29T17:57:50.317Z,99179.70
2018-06-29T18:01:53.836Z,99178.37
2018-06-29T18:05:57.257Z,99175.09
2018-06-29T18:10:00.731Z,99177.27
2018-06-29T18:14:04.202Z,99192.51
2018-06-29T18:18:07.653Z,99190.35
2018-06-29T18:22:11.121Z,99188.55
2018-06-29T18:26:14.546Z,99190.10
2018-06-29T18:30:17.978Z,99202.63
2018-06-29T18:34:21.480Z,99205.92
2018-06-29T18:38:24.926Z,99209.30
2018-06-29T18:42:28.454Z,99210.95
2018-06-29T18:46:32.130Z,99216.66
2018-06-29T18:50:35.616Z,99222.94
2018-06-29T18:54:39.106Z,99228.35
2018-06-29T18:58:42.880Z,99231.98
2018-06-29T19:02:46.525Z,99234.97
2018-06-29T19:06:49.965Z,99241.63
2018-06-29T19:10:53.385Z,99236.92
2018-06-29T19:14:56.816Z,99246.94
2018-06-29T19:19:00.300Z,99250.12
2018-06-29T19:23:03.759Z,99256.19
2018-06-29T19:27:07.306Z,99266.08
2018-06-29T19:31:10.806Z,99260.61
2018-06-29T19:35:14.198Z,99276.09
2018-06-29T19:39:17.740Z,99278.58
2018-06-29T19:43:21.178Z,99279.34
2018-06-29T19:47:24.601Z,99273.78
2018-06-29T19:51:28.753Z,99279.93
2018-06-29T19:55:32.293Z,99281.86
2018-06-29T19:59:35.721Z,99285.59
2018-06-29T20:03:39.158Z,99284.15
2018-06-29T20:07:43.582Z,99290.34
2018-06-29T20:11:46.991Z,99294.38
2018-06-29T20:15:52.994Z,99301.00
2018-06-29T20:19:57.370Z,99293.41
2018-06-29T20:24:00.940Z,99300.58
2018-06-29T20:28:04.786Z,99299.70
2018-06-29T20:32:09.239Z,99308.81
2018-06-29T20:36:12.645Z,99311.67
2018-06-29T20:40:16.360Z,99314.73
2018-06-29T20:44:19.851Z,99316.83
2018-06-29T20:48:23.277Z,99318.92
2018-06-29T20:52:26.928Z,99323.70
2018-06-29T20:56:30.382Z,99325.47
2018-06-29T21:00:33.816Z,99336.06
2018-06-29T21:04:37.308Z,99331.52
2018-06-29T21:08:41.123Z,99329.48
2018-06-29T21:12:44.562Z,99326.52
2018-06-29T21:16:47.978Z,99326.39
2018-06-29T21:20:51.382Z,99324.36
2018-06-29T21:24:54.874Z,99329.58
2018-06-29T21:28:58.337Z,99326.84
2018-06-29T21:33:01.851Z,99329.70
2018-06-29T21:37:05.621Z,99329.49
2018-06-29T21:41:09.034Z,99337.14
2018-06-29T21:45:12.764Z,99339.63
2018-06-29T21:49:16.188Z,99336.53
2018-06-29T21:53:19.617Z,99343.81
2018-06-29T21:57:23.155Z,99343.03
2018-06-29T22:01:26.788Z,99337.66
2018-06-29T22:05:30.244Z,99333.56
2018-06-29T22:09:33.687Z,99330.47
2018-06-29T22:13:37.133Z,99334.05
2018-06-29T22:17:40.548Z,99336.73
2018-06-29T22:21:43.992Z,99332.70
2018-06-29T22:25:47.411Z,99323.39
2018-06-29T22:29:50.866Z,99329.77
2018-06-29T22:33:54.302Z,99323.63
2018-06-29T22:37:57.808Z,99318.83
2018-06-29T22:42:01.204Z,99315.36
2018-06-29T22:46:04.666Z,99306.05
2018-06-29T22:50:08.152Z,99315.66
2018-06-29T22:54:11.603Z,99318.98
2018-06-29T22:58:14.997Z,99314.34
2018-06-29T23:02:18.476Z,99314.13
2018-06-29T23:06:22.643Z,99310.67
2018-06-29T23:10:26.058Z,99306.32
2018-06-29T23:14:29.477Z,99309.56
2018-06-29T23:18:32.878Z,99307.05
2018-06-29T23:22:36.356Z,99313.53
2018-06-29T23:26:39.771Z,99309.75
2018-06-29T23:30:43.246Z,99306.15
2018-06-29T23:34:46.653Z,99304.34
2018-06-29T23:38:50.085Z,99313.18
2018-06-29T23:42:53.530Z,99321.45
2018-06-29T23:46:56.963Z,99320.67
2018-06-29T23:51:00.388Z,99313.75
2018-06-29T23:55:03.849Z,99313.52
2018-06-29T23:59:07.284Z,99311.00
